Time;durP1;ratioP1;P1;durP2;ratioP2;P2;SDS_P1;SDS_P2;PMS_P1;PMS_P2;Temp;Humidity;BMP_temperature;BMP_pressure;BME280_temperature;BME280_humidity;BME280_pressure;Samples;Min_cycle;Max_cycle;Signal;HPM_P1;HPM_P2
2022/12/15 00:38:43;;;;;;;21.58;12.20;;;-4.40;99.90;;;;;;5114925;28;20111;-63
2022/12/15 00:41:10;;;;;;;28.05;12.88;;;-4.40;99.90;;;;;;5088301;28;20031;-63
2022/12/15 00:43:36;;;;;;;25.10;12.50;;;-4.40;99.90;;;;;;5116199;28;20456;-63
2022/12/15 00:48:47;;;;;;;21.43;12.37;;;-4.30;99.90;;;;;;5116822;28;20134;-64
2022/12/15 00:51:13;;;;;;;21.98;11.82;;;-4.30;99.90;;;;;;5112596;28;20075;-63
2022/12/15 01:21:07;;;;;;;25.63;12.85;;;-4.40;99.90;;;;;;5112702;28;20042;-63
2022/12/15 01:23:34;;;;;;;23.70;12.70;;;-4.50;99.90;;;;;;5115187;28;20495;-63
2022/12/15 01:26:00;;;;;;;22.67;13.02;;;-4.50;99.90;;;;;;5096003;28;20072;-62
2022/12/15 01:28:26;;;;;;;24.65;11.70;;;-4.50;99.90;;;;;;5111759;28;20040;-66
2022/12/15 01:30:52;;;;;;;23.67;12.82;;;-4.50;99.90;;;;;;5114876;28;20046;-62
2022/12/15 01:33:19;;;;;;;27.67;13.00;;;-4.50;99.90;;;;;;5112238;28;20054;-63
2022/12/15 01:35:57;;;;;;;25.08;12.77;;;-4.50;99.90;;;;;;5095678;28;20104;-63
2022/12/15 01:38:23;;;;;;;23.80;13.07;;;-4.50;99.90;;;;;;5111107;28;20071;-62
2022/12/15 01:40:57;;;;;;;24.92;12.07;;;-4.50;99.90;;;;;;5113543;28;20104;-62
2022/12/15 01:43:25;;;;;;;26.58;13.93;;;-4.50;99.90;;;;;;5114458;28;20071;-64
2022/12/15 01:46:02;;;;;;;26.70;13.23;;;-4.60;99.90;;;;;;5111585;28;20031;-63
2022/12/15 01:48:27;;;;;;;23.92;12.88;;;-4.60;99.90;;;;;;5114173;28;20494;-63
2022/12/15 01:51:23;;;;;;;25.20;13.45;;;-4.60;99.90;;;;;;5111472;28;20584;-63
2022/12/15 01:54:01;;;;;;;24.80;13.03;;;-4.60;99.90;;;;;;5113897;28;20054;-65
2022/12/15 01:56:30;;;;;;;21.42;12.48;;;-4.60;99.90;;;;;;5113802;28;20309;-63
2022/12/15 01:59:00;;;;;;;26.13;14.20;;;-4.60;99.90;;;;;;5112023;28;20059;-63
2022/12/15 02:01:26;;;;;;;23.95;12.45;;;-4.60;99.90;;;;;;5094394;28;20079;-64
2022/12/15 02:03:51;;;;;;;23.33;12.57;;;-4.60;99.90;;;;;;5111206;28;20040;-63
2022/12/15 02:06:20;;;;;;;24.77;13.23;;;-4.50;99.90;;;;;;5114857;28;20251;-64
2022/12/15 02:08:49;;;;;;;27.15;13.35;;;-4.50;99.90;;;;;;5113781;28;20047;-63
2022/12/15 02:11:27;;;;;;;24.15;13.63;;;-4.50;99.90;;;;;;5112150;28;20082;-63
2022/12/15 02:13:59;;;;;;;23.90;12.57;;;-4.50;99.90;;;;;;5114888;28;20103;-63
2022/12/15 02:16:47;;;;;;;27.65;13.30;;;-4.50;99.90;;;;;;5111644;28;20048;-63
2022/12/15 02:19:19;;;;;;;25.08;12.18;;;-4.50;99.90;;;;;;5114306;28;20111;-64
2022/12/15 02:21:53;;;;;;;25.85;13.43;;;-5.00;99.90;;;;;;5113705;28;20081;-61
2022/12/15 02:24:31;;;;;;;23.27;13.18;;;-4.50;99.90;;;;;;5112171;28;20129;-63
2022/12/15 02:27:27;;;;;;;23.92;13.85;;;-2.70;99.90;;;;;;5112970;28;20047;-64
2022/12/15 02:30:12;;;;;;;22.38;12.50;;;-4.40;99.90;;;;;;5110660;28;20065;-64
2022/12/15 02:32:49;;;;;;;24.80;12.35;;;-4.40;99.90;;;;;;5110444;28;20050;-63
2022/12/15 02:35:39;;;;;;;21.75;12.60;;;-4.40;99.90;;;;;;5114117;28;20054;-63
2022/12/15 02:38:06;;;;;;;21.95;12.05;;;-4.40;99.90;;;;;;5111326;28;20062;-63
2022/12/15 02:40:32;;;;;;;21.45;11.93;;;-4.40;99.90;;;;;;5114005;28;20113;-63
2022/12/15 02:43:02;;;;;;;23.00;11.65;;;-4.40;99.90;;;;;;5112266;28;20048;-62
2022/12/15 02:45:56;;;;;;;25.15;12.52;;;-4.40;99.90;;;;;;5112378;28;20036;-63
2022/12/15 02:48:25;;;;;;;24.08;11.90;;;-4.10;99.90;;;;;;5111868;28;20043;-61
2022/12/15 02:51:14;;;;;;;22.35;11.98;;;-4.40;99.90;;;;;;5110117;28;20062;-64
2022/12/15 02:54:05;;;;;;;26.58;13.23;;;-4.40;99.90;;;;;;5112891;28;20131;-64
2022/12/15 02:56:53;;;;;;;22.42;11.75;;;-4.40;99.90;;;;;;5113321;28;20075;-64
2022/12/15 02:59:37;;;;;;;25.08;12.02;;;-4.50;99.90;;;;;;5109176;28;20047;-64
2022/12/15 03:02:07;;;;;;;21.08;11.05;;;-4.50;99.90;;;;;;5093773;28;20031;-64
2022/12/15 03:04:33;;;;;;;24.58;12.15;;;-4.50;99.90;;;;;;5112647;28;20075;-62
2022/12/15 03:07:05;;;;;;;22.05;12.90;;;-4.50;99.90;;;;;;5110967;28;20039;-62
2022/12/15 03:09:31;;;;;;;22.00;11.70;;;-4.50;99.90;;;;;;5113750;28;20183;-62
2022/12/15 03:11:57;;;;;;;25.02;12.63;;;-6.10;99.90;;;;;;5110512;28;20039;-62
2022/12/15 03:14:25;;;;;;;27.08;12.15;;;-4.50;99.90;;;;;;5113773;28;20091;-64
2022/12/15 03:16:53;;;;;;;20.15;12.60;;;-4.50;99.90;;;;;;5109931;28;20061;-64
2022/12/15 03:19:19;;;;;;;25.48;11.70;;;-4.60;99.90;;;;;;5113606;28;20581;-62
2022/12/15 03:21:44;;;;;;;27.35;11.90;;;-4.60;99.90;;;;;;5112046;28;20034;-63
2022/12/15 03:24:10;;;;;;;25.25;11.65;;;-4.60;99.90;;;;;;5110660;28;20047;-64
2022/12/15 03:26:36;;;;;;;22.70;11.40;;;-4.60;99.90;;;;;;5111946;28;20046;-64
2022/12/15 03:29:02;;;;;;;19.90;11.73;;;-4.60;99.90;;;;;;5108269;28;20477;-62
2022/12/15 03:31:27;;;;;;;21.58;11.80;;;-4.60;99.90;;;;;;5073615;28;20046;-63
2022/12/15 03:33:54;;;;;;;20.52;10.90;;;-3.20;99.90;;;;;;5108469;28;20040;-63
2022/12/15 03:36:21;;;;;;;21.98;12.20;;;-4.70;99.90;;;;;;5111947;28;20035;-64
2022/12/15 03:38:48;;;;;;;17.98;11.07;;;-4.60;99.90;;;;;;5111547;28;20054;-62
2022/12/15 03:41:14;;;;;;;22.05;11.85;;;-4.60;99.90;;;;;;5074439;28;20039;-62
2022/12/15 03:43:39;;;;;;;22.75;12.38;;;-4.60;99.90;;;;;;5094449;28;20035;-62
2022/12/15 03:46:05;;;;;;;22.90;12.00;;;-4.60;99.90;;;;;;5090114;28;20046;-63
2022/12/15 03:48:31;;;;;;;27.38;11.85;;;-4.60;99.90;;;;;;5111805;28;20043;-65
2022/12/15 03:50:58;;;;;;;25.02;12.27;;;-4.60;99.90;;;;;;5109720;28;20059;-63
2022/12/15 03:53:23;;;;;;;24.63;12.00;;;-4.60;99.90;;;;;;5111945;28;20051;-65
2022/12/15 03:55:49;;;;;;;22.65;11.20;;;-4.60;99.90;;;;;;5110548;28;20039;-63
2022/12/15 03:58:14;;;;;;;22.75;11.73;;;-4.60;99.90;;;;;;5092196;28;20051;-62
2022/12/15 04:00:40;;;;;;;30.05;13.00;;;-4.70;99.90;;;;;;5113055;28;20051;-61
2022/12/15 04:03:06;;;;;;;22.38;12.35;;;-4.60;99.90;;;;;;5109719;28;20051;-62
2022/12/15 04:05:33;;;;;;;20.10;11.82;;;-2.60;99.90;;;;;;5112188;28;20050;-63
2022/12/15 04:08:00;;;;;;;22.95;12.23;;;-4.60;99.90;;;;;;5108765;28;20032;-64
2022/12/15 04:10:28;;;;;;;23.15;12.60;;;-4.60;99.90;;;;;;5112841;28;20051;-62
2022/12/15 04:13:02;;;;;;;26.25;11.82;;;-4.60;99.90;;;;;;5109732;28;20039;-62
2022/12/15 04:15:28;;;;;;;28.13;12.32;;;-4.60;99.90;;;;;;5110153;28;20163;-63
2022/12/15 04:17:53;;;;;;;22.77;12.00;;;-4.60;99.90;;;;;;5112184;28;20119;-63
2022/12/15 04:20:20;;;;;;;20.55;11.45;;;-4.70;99.90;;;;;;5109709;28;20083;-64
2022/12/15 04:22:47;;;;;;;22.48;11.10;;;-4.70;99.90;;;;;;5112581;28;20048;-63
2022/12/15 05:34:00;;;;;;;19.88;10.98;;;-4.70;99.90;;;;;;5112702;28;20075;-61
2022/12/15 05:36:25;;;;;;;19.67;10.80;;;-4.70;99.90;;;;;;5114625;28;20032;-62
2022/12/15 05:38:52;;;;;;;21.48;11.57;;;-4.80;99.90;;;;;;5113962;28;20058;-64
2022/12/15 05:41:19;;;;;;;24.10;11.38;;;-4.70;99.90;;;;;;5112941;28;20158;-63
2022/12/15 05:43:46;;;;;;;20.52;11.25;;;-4.70;99.90;;;;;;5114985;28;20052;-63
2022/12/15 05:46:13;;;;;;;21.77;11.32;;;-4.70;99.90;;;;;;5112381;28;20093;-62
2022/12/15 05:48:39;;;;;;;18.15;11.20;;;-4.70;99.90;;;;;;5096526;28;20058;-63
2022/12/15 05:51:10;;;;;;;25.42;12.52;;;-4.70;99.90;;;;;;5111826;28;20502;-63
2022/12/15 05:53:37;;;;;;;22.67;11.55;;;-3.10;99.90;;;;;;5113786;28;20044;-63
2022/12/15 05:56:04;;;;;;;18.42;10.55;;;-4.70;99.90;;;;;;5114632;28;20051;-64
2022/12/15 05:58:30;;;;;;;19.05;10.82;;;-4.60;99.90;;;;;;5071509;28;20209;-64
2022/12/15 06:01:10;;;;;;;19.00;10.40;;;-4.60;99.90;;;;;;5114389;28;20080;-63
2022/12/15 06:03:37;;;;;;;21.55;10.85;;;-4.60;99.90;;;;;;5111583;28;20081;-63
2022/12/15 06:06:04;;;;;;;23.48;11.95;;;-4.70;99.90;;;;;;5114467;28;20039;-63
2022/12/15 06:08:32;;;;;;;23.20;11.68;;;-4.60;99.90;;;;;;5112183;28;20036;-62
2022/12/15 06:10:58;;;;;;;21.05;11.02;;;-4.60;99.90;;;;;;5093825;28;20070;-64
2022/12/15 06:13:24;;;;;;;24.70;11.35;;;-4.60;99.90;;;;;;5112189;28;20047;-63
2022/12/15 06:15:58;;;;;;;21.95;11.75;;;-4.60;99.90;;;;;;5109548;28;20054;-62
2022/12/15 06:18:25;;;;;;;21.45;11.45;;;-4.60;99.90;;;;;;5112655;28;20699;-64
2022/12/15 06:20:59;;;;;;;21.63;10.90;;;-4.50;99.90;;;;;;5110491;28;20454;-63
2022/12/15 06:23:27;;;;;;;23.67;11.98;;;-4.50;99.90;;;;;;5112623;28;20086;-63
2022/12/15 06:25:54;;;;;;;21.38;11.35;;;-4.50;99.90;;;;;;5111620;28;20058;-63
2022/12/15 06:28:22;;;;;;;22.67;10.63;;;-4.50;99.90;;;;;;5110755;28;20036;-64
2022/12/15 06:30:51;;;;;;;19.50;10.57;;;-4.50;99.90;;;;;;5114234;28;20039;-63
2022/12/15 06:33:16;;;;;;;21.70;10.95;;;-4.50;99.90;;;;;;5110600;28;20055;-64
2022/12/15 06:35:42;;;;;;;20.70;10.75;;;-4.50;99.90;;;;;;5095629;28;20055;-63
2022/12/15 06:38:08;;;;;;;18.40;10.82;;;-4.50;99.90;;;;;;5111592;28;20064;-62
2022/12/15 06:40:33;;;;;;;19.85;10.52;;;-4.50;99.90;;;;;;5096074;28;20051;-64
2022/12/15 06:42:59;;;;;;;22.55;10.75;;;-4.50;99.90;;;;;;5094667;28;20081;-63
2022/12/15 06:45:25;;;;;;;19.70;11.35;;;-4.50;99.90;;;;;;5112570;28;20040;-63
2022/12/15 06:47:50;;;;;;;21.92;11.25;;;-2.90;99.90;;;;;;5113265;28;20047;-63
2022/12/15 06:50:16;;;;;;;20.38;10.32;;;-4.50;99.90;;;;;;5111150;28;20114;-63
2022/12/15 06:52:42;;;;;;;21.15;10.98;;;-4.50;99.90;;;;;;5077098;28;20039;-64
2022/12/15 06:55:10;;;;;;;19.75;9.90;;;-4.50;99.90;;;;;;5109628;28;20126;-64
2022/12/15 06:57:36;;;;;;;21.63;11.55;;;-4.50;99.90;;;;;;5113006;28;20044;-63
2022/12/15 07:00:03;;;;;;;19.23;11.20;;;-3.30;99.90;;;;;;5088677;28;20113;-63
2022/12/15 07:02:31;;;;;;;20.92;10.50;;;-4.40;99.90;;;;;;5111646;28;20035;-63
2022/12/15 07:04:57;;;;;;;20.83;11.27;;;-4.40;99.90;;;;;;5093980;28;20420;-65
2022/12/15 07:07:24;;;;;;;20.80;10.80;;;-4.40;99.90;;;;;;5108973;28;20043;-64
2022/12/15 07:09:50;;;;;;;19.38;10.88;;;-4.40;99.90;;;;;;5113127;28;20040;-64
2022/12/15 07:12:16;;;;;;;18.17;10.35;;;-4.40;99.90;;;;;;5088532;28;20035;-63
2022/12/15 07:14:42;;;;;;;19.67;11.05;;;-4.10;99.90;;;;;;5111647;28;20040;-64
2022/12/15 07:17:09;;;;;;;20.98;11.48;;;-4.40;99.90;;;;;;5063381;28;20040;-63
2022/12/15 07:19:35;;;;;;;21.30;11.23;;;-4.30;99.90;;;;;;5110351;28;20044;-65
2022/12/15 07:22:02;;;;;;;19.73;11.02;;;-4.30;99.90;;;;;;5109880;28;20043;-64
2022/12/15 07:24:28;;;;;;;21.08;11.30;;;-4.20;99.90;;;;;;5104792;28;20075;-64
2022/12/15 07:26:54;;;;;;;22.90;10.85;;;-4.20;99.90;;;;;;5109050;28;20120;-63
2022/12/15 07:29:20;;;;;;;17.80;10.75;;;-4.20;99.90;;;;;;5088988;28;20055;-65
2022/12/15 07:31:46;;;;;;;18.35;10.45;;;-4.20;99.90;;;;;;5108526;28;20041;-65
2022/12/15 07:34:11;;;;;;;21.40;11.45;;;-4.20;99.90;;;;;;5109639;28;20036;-64
2022/12/15 07:36:37;;;;;;;16.95;9.93;;;-4.20;99.90;;;;;;5111383;28;20097;-64
2022/12/15 07:39:04;;;;;;;21.83;10.65;;;-4.10;99.90;;;;;;5112291;28;20126;-64
2022/12/15 07:41:30;;;;;;;18.13;10.43;;;-4.10;99.90;;;;;;5088113;28;20130;-65
2022/12/15 07:43:56;;;;;;;20.17;10.75;;;-4.10;99.90;;;;;;5109494;28;20039;-65
2022/12/15 07:46:23;;;;;;;21.90;10.75;;;-4.10;99.90;;;;;;5090010;28;20855;-64
2022/12/15 07:48:48;;;;;;;17.85;10.90;;;-4.10;99.90;;;;;;5109227;28;20046;-66
2022/12/15 07:51:14;;;;;;;21.88;10.38;;;-4.10;99.90;;;;;;5107983;28;20035;-69
2022/12/15 07:53:40;;;;;;;21.13;10.73;;;-4.00;99.90;;;;;;5111444;28;20396;-69
2022/12/15 07:56:06;;;;;;;21.17;11.05;;;-4.00;99.90;;;;;;5110269;28;20116;-66
2022/12/15 07:58:32;;;;;;;20.83;10.90;;;-4.00;99.90;;;;;;5085942;28;20048;-66
2022/12/15 08:01:00;;;;;;;21.35;10.82;;;-3.70;99.90;;;;;;5111314;28;20047;-67
2022/12/15 08:03:26;;;;;;;20.85;9.75;;;-3.90;99.90;;;;;;5108237;28;20059;-66
2022/12/15 08:05:52;;;;;;;21.48;10.95;;;-3.80;99.90;;;;;;5111698;28;20109;-67
2022/12/15 08:08:19;;;;;;;24.48;11.00;;;-3.30;99.90;;;;;;5107799;28;20580;-66
2022/12/15 08:10:45;;;;;;;18.65;10.75;;;-3.70;99.90;;;;;;5109678;28;20155;-67
2022/12/15 08:13:12;;;;;;;17.08;10.60;;;-3.70;99.90;;;;;;5110409;28;20454;-65
2022/12/15 08:15:38;;;;;;;24.15;11.20;;;-3.70;99.90;;;;;;5109437;28;20036;-66
2022/12/15 08:18:04;;;;;;;19.90;10.88;;;-3.60;99.90;;;;;;5109984;28;20185;-65
2022/12/15 08:20:30;;;;;;;18.10;10.48;;;-3.40;99.90;;;;;;5089234;28;20045;-64
2022/12/15 08:22:57;;;;;;;20.45;10.90;;;-3.40;99.90;;;;;;5109752;28;20056;-64
2022/12/15 08:25:23;;;;;;;19.67;10.95;;;-3.30;99.90;;;;;;5091284;28;20136;-63
2022/12/15 08:27:50;;;;;;;18.25;10.20;;;-3.20;99.90;;;;;;5090355;28;20418;-64
2022/12/15 08:30:17;;;;;;;21.35;10.60;;;-3.10;99.90;;;;;;5086882;28;20044;-64
2022/12/15 08:32:43;;;;;;;22.08;11.48;;;-3.00;99.90;;;;;;5089358;28;20045;-64
2022/12/15 08:35:09;;;;;;;20.48;11.40;;;-3.00;99.90;;;;;;5106736;28;20048;-64
2022/12/15 08:37:35;;;;;;;23.20;10.70;;;-3.00;99.90;;;;;;5105668;28;20510;-63
2022/12/15 08:40:00;;;;;;;20.15;10.15;;;-3.00;99.90;;;;;;5092375;28;20124;-64
2022/12/15 08:42:26;;;;;;;23.45;10.60;;;-3.00;99.90;;;;;;5107013;28;20725;-63
2022/12/15 08:44:52;;;;;;;18.65;10.40;;;-3.00;99.90;;;;;;5110872;28;20051;-64
2022/12/15 08:47:17;;;;;;;21.15;10.27;;;-3.00;99.90;;;;;;5094455;28;20062;-65
2022/12/15 08:49:43;;;;;;;18.50;9.77;;;-2.80;99.90;;;;;;5094589;28;20180;-63
2022/12/15 08:52:09;;;;;;;19.40;10.18;;;-3.10;99.90;;;;;;5114429;28;20069;-64
2022/12/15 08:54:35;;;;;;;21.13;10.40;;;-3.00;99.90;;;;;;5092644;28;20296;-64
2022/12/15 08:57:00;;;;;;;16.60;9.98;;;-3.00;99.90;;;;;;5114174;28;20047;-64
2022/12/15 08:59:26;;;;;;;18.27;10.65;;;-2.90;99.90;;;;;;5111391;28;20761;-65
2022/12/15 09:01:51;;;;;;;16.10;9.60;;;-2.90;99.90;;;;;;5093941;28;20044;-64
2022/12/15 09:04:17;;;;;;;17.60;10.45;;;-2.70;99.90;;;;;;5114296;28;20059;-63
2022/12/15 09:06:43;;;;;;;20.02;10.63;;;-2.60;99.90;;;;;;5093920;28;20084;-66
2022/12/15 09:09:11;;;;;;;19.30;11.30;;;-2.50;99.90;;;;;;5112349;28;20046;-65
2022/12/15 09:11:37;;;;;;;18.75;11.00;;;-2.40;99.90;;;;;;5110147;28;20048;-64
2022/12/15 09:14:03;;;;;;;19.20;11.48;;;-2.20;99.90;;;;;;5114582;28;20084;-64
2022/12/15 09:16:29;;;;;;;18.98;10.13;;;-2.10;99.90;;;;;;5111820;28;20127;-62
2022/12/15 09:18:57;;;;;;;23.40;10.93;;;-1.80;99.90;;;;;;5092725;28;20092;-64
2022/12/15 09:21:25;;;;;;;19.05;11.85;;;-1.60;99.90;;;;;;5094501;28;20112;-62
2022/12/15 09:23:53;;;;;;;21.70;11.00;;;-1.30;99.90;;;;;;5094152;28;20116;-64
2022/12/15 09:26:21;;;;;;;16.27;10.00;;;-1.10;99.90;;;;;;5079782;28;20058;-63
2022/12/15 09:28:48;;;;;;;15.63;9.38;;;-1.10;99.90;;;;;;5088033;28;20039;-63
2022/12/15 09:31:20;;;;;;;18.13;9.52;;;-1.10;99.90;;;;;;5114649;28;20055;-63
2022/12/15 09:33:47;;;;;;;17.35;9.50;;;-1.10;99.90;;;;;;5111535;28;20039;-65
2022/12/15 09:36:12;;;;;;;17.38;9.15;;;-1.20;99.90;;;;;;5114548;28;20115;-64
2022/12/15 09:38:40;;;;;;;19.13;9.20;;;-1.20;99.90;;;;;;5113195;28;20067;-63
2022/12/15 09:41:11;;;;;;;26.60;10.90;;;-1.10;99.90;;;;;;5112520;28;20039;-62
2022/12/15 09:43:49;;;;;;;13.75;8.65;;;-1.10;99.90;;;;;;5113854;28;20051;-64
2022/12/15 09:46:43;;;;;;;14.55;8.25;;;-1.00;99.90;;;;;;5095129;28;20063;-63
2022/12/15 09:49:36;;;;;;;17.70;8.98;;;-1.00;99.90;;;;;;5095159;28;20135;-64
2022/12/15 09:52:10;;;;;;;16.73;9.30;;;-0.90;99.90;;;;;;5100112;28;20052;-64
2022/12/15 09:54:36;;;;;;;18.92;9.38;;;-0.90;99.90;;;;;;5111466;28;20075;-64
2022/12/15 09:57:10;;;;;;;20.58;9.50;;;-0.90;99.90;;;;;;5086271;28;20434;-63
2022/12/15 10:00:10;;;;;;;13.20;6.78;;;-0.90;99.90;;;;;;5111745;28;20097;-62
2022/12/15 10:02:57;;;;;;;14.65;8.85;;;-0.90;99.90;;;;;;5111701;28;20043;-63
2022/12/15 10:05:35;;;;;;;18.73;9.25;;;-0.50;99.90;;;;;;5114105;28;20043;-64
2022/12/15 10:08:01;;;;;;;16.08;8.43;;;0.40;99.90;;;;;;5111336;28;20521;-63
2022/12/15 10:10:48;;;;;;;14.63;8.82;;;1.20;99.90;;;;;;5114375;28;20040;-64
2022/12/15 10:13:23;;;;;;;12.75;8.68;;;1.80;99.90;;;;;;5112602;28;20430;-62
2022/12/15 10:16:15;;;;;;;16.48;9.05;;;2.50;99.90;;;;;;5109521;28;20062;-64
2022/12/15 10:19:01;;;;;;;11.45;7.90;;;2.90;99.90;;;;;;5091562;28;20067;-63
2022/12/15 10:21:29;;;;;;;13.90;7.82;;;3.20;99.90;;;;;;5112212;28;20039;-61
2022/12/15 10:24:15;;;;;;;13.48;7.70;;;3.50;99.90;;;;;;5111824;28;20056;-65
2022/12/15 10:26:42;;;;;;;15.07;8.70;;;3.40;99.90;;;;;;5112046;28;20653;-63
2022/12/15 10:29:34;;;;;;;13.40;7.68;;;3.00;99.90;;;;;;5110499;28;20484;-63
2022/12/15 10:32:09;;;;;;;15.07;7.80;;;2.80;99.90;;;;;;5111360;28;20066;-63
2022/12/15 10:34:39;;;;;;;13.57;7.00;;;2.70;99.90;;;;;;5093087;28;20046;-63
2022/12/15 10:37:05;;;;;;;15.70;7.63;;;2.80;99.90;;;;;;5110434;28;20039;-64
2022/12/15 10:39:41;;;;;;;16.35;8.55;;;2.30;99.90;;;;;;5111648;28;20051;-64
2022/12/15 10:42:23;;;;;;;15.60;8.25;;;2.00;99.90;;;;;;5091721;28;20049;-64
2022/12/15 10:44:55;;;;;;;15.57;7.60;;;1.70;99.90;;;;;;5109359;28;20043;-62
2022/12/15 10:47:28;;;;;;;13.48;8.05;;;1.40;99.90;;;;;;5109070;28;20043;-63
2022/12/15 10:49:55;;;;;;;13.10;8.63;;;1.20;99.90;;;;;;5108876;28;20675;-62
2022/12/15 10:52:36;;;;;;;13.50;8.57;;;1.40;99.90;;;;;;5111558;28;20050;-64
2022/12/15 10:55:31;;;;;;;14.82;8.23;;;1.10;99.90;;;;;;5107882;28;20054;-64
2022/12/15 10:57:59;;;;;;;16.38;8.07;;;1.10;99.90;;;;;;5110873;28;20047;-63
2022/12/15 11:00:31;;;;;;;16.67;9.13;;;1.10;99.90;;;;;;5110665;28;20043;-59
2022/12/15 11:02:57;;;;;;;19.73;9.68;;;1.20;99.90;;;;;;5101712;28;20039;-58
2022/12/15 11:05:24;;;;;;;15.07;9.73;;;1.60;99.90;;;;;;5092011;28;20414;-63
2022/12/15 11:08:11;;;;;;;13.18;8.30;;;1.10;99.90;;;;;;5105573;28;20169;-61
2022/12/15 11:14:01;;;;;;;14.15;9.02;;;0.90;99.90;;;;;;5109118;28;20093;-62
2022/12/15 11:16:30;;;;;;;13.30;8.40;;;1.10;99.90;;;;;;5090343;28;20054;-63
2022/12/15 11:19:10;;;;;;;15.00;8.35;;;2.00;99.90;;;;;;5109440;28;20074;-63
2022/12/15 11:21:43;;;;;;;16.33;8.88;;;4.00;99.90;;;;;;5107461;28;20043;-62
2022/12/15 11:24:21;;;;;;;17.55;9.88;;;3.10;99.90;;;;;;5106937;28;20047;-65
2022/12/15 11:26:57;;;;;;;16.55;7.95;;;3.80;99.90;;;;;;5110607;28;20192;-64
2022/12/15 11:29:41;;;;;;;;;;;4.50;99.90;;;;;;5107428;28;20043;-64
2022/12/15 11:32:10;;;;;;;14.38;7.53;;;5.10;99.90;;;;;;5107785;28;20225;-65
2022/12/15 11:34:41;;;;;;;13.02;7.47;;;5.20;99.90;;;;;;5112117;28;20051;-65
2022/12/15 11:37:34;;;;;;;11.48;7.35;;;5.10;99.90;;;;;;5108582;28;20398;-65
2022/12/15 11:40:34;;;;;;;10.60;7.18;;;5.10;99.90;;;;;;5111143;28;20234;-66
2022/12/15 11:43:22;;;;;;;11.95;7.15;;;5.00;99.90;;;;;;5110537;28;20082;-65
2022/12/15 11:46:06;;;;;;;12.27;7.35;;;4.90;99.90;;;;;;5107981;28;20050;-61
2022/12/15 11:48:56;;;;;;;16.17;7.60;;;4.90;99.90;;;;;;5104195;28;20055;-64
2022/12/15 11:51:42;;;;;;;12.95;7.53;;;4.90;99.90;;;;;;5107044;28;20058;-63
2022/12/15 11:54:22;;;;;;;14.95;6.93;;;4.70;99.90;;;;;;5107170;28;20122;-63
2022/12/15 11:56:58;;;;;;;19.30;7.55;;;4.40;99.90;;;;;;5108935;28;20055;-63
2022/12/15 11:59:29;;;;;;;11.32;7.95;;;4.10;99.90;;;;;;5107365;28;20089;-63
2022/12/15 12:02:16;;;;;;;12.15;7.63;;;4.00;99.90;;;;;;5112766;28;20047;-61
2022/12/15 12:04:56;;;;;;;11.93;7.13;;;3.90;99.90;;;;;;5109404;28;20064;-66
2022/12/15 12:07:45;;;;;;;17.63;7.90;;;4.00;99.90;;;;;;5106042;28;20047;-65
2022/12/15 12:10:49;;;;;;;12.13;7.50;;;3.80;99.90;;;;;;5109294;28;20058;-64
2022/12/15 12:13:37;;;;;;;19.45;8.48;;;3.60;99.90;;;;;;5089538;28;20047;-63
2022/12/15 12:16:25;;;;;;;13.93;8.10;;;3.50;99.90;;;;;;5107165;28;20550;-63
2022/12/15 12:19:01;;;;;;;13.60;8.50;;;3.30;99.90;;;;;;5092929;28;20104;-64
2022/12/15 12:21:42;;;;;;;15.35;8.27;;;3.20;99.90;;;;;;5094384;28;20606;-63
2022/12/15 12:24:19;;;;;;;13.98;7.35;;;3.10;99.90;;;;;;5112805;28;20507;-67
2022/12/15 12:26:48;;;;;;;13.27;8.18;;;3.00;99.90;;;;;;5115159;28;20055;-67
2022/12/15 12:29:17;;;;;;;13.30;8.40;;;2.90;99.90;;;;;;5113246;28;20063;-63
2022/12/15 12:31:48;;;;;;;15.82;7.90;;;2.80;99.90;;;;;;5118057;28;20043;-64
2022/12/15 12:34:24;;;;;;;14.48;8.18;;;2.80;99.90;;;;;;5116217;28;20467;-64
2022/12/15 12:36:52;;;;;;;13.25;7.65;;;2.80;99.90;;;;;;5115637;28;20080;-63
2022/12/15 12:39:24;;;;;;;15.05;7.82;;;2.80;99.90;;;;;;5117981;28;20051;-64
2022/12/15 12:42:06;;;;;;;12.55;7.00;;;2.90;99.90;;;;;;5114672;28;20054;-65
2022/12/15 12:44:36;;;;;;;12.57;7.40;;;3.10;99.90;;;;;;5114157;28;20090;-65
2022/12/15 12:47:27;;;;;;;19.45;8.10;;;3.90;99.90;;;;;;5113239;28;20059;-66
2022/12/15 12:50:24;;;;;;;13.55;7.28;;;3.20;99.90;;;;;;5102557;28;20612;-63
2022/12/15 12:52:54;;;;;;;13.23;7.47;;;3.40;99.90;;;;;;5112582;28;20438;-60
2022/12/15 12:55:35;;;;;;;14.93;8.38;;;3.60;99.90;;;;;;5110005;28;20040;-63
2022/12/15 12:58:01;;;;;;;12.20;7.68;;;3.80;99.90;;;;;;5115774;28;20075;-63
2022/12/15 13:00:31;;;;;;;12.98;7.05;;;4.20;99.90;;;;;;5081717;28;20052;-62
2022/12/15 13:03:19;;;;;;;15.15;7.72;;;4.50;99.90;;;;;;5115102;28;20043;-63
2022/12/15 13:05:47;;;;;;;16.70;7.30;;;4.80;99.90;;;;;;5116960;28;20052;-64
2022/12/15 13:08:13;;;;;;;15.50;8.30;;;4.80;99.90;;;;;;5110723;28;20039;-65
2022/12/15 13:10:40;;;;;;;11.23;7.38;;;4.90;99.90;;;;;;5115498;27;20288;-63
2022/12/15 13:13:17;;;;;;;12.82;7.88;;;5.20;99.90;;;;;;5114859;28;20039;-63
2022/12/15 13:16:07;;;;;;;18.30;8.50;;;5.50;99.90;;;;;;5114852;28;20040;-63
2022/12/15 13:18:56;;;;;;;13.40;7.82;;;5.80;99.90;;;;;;5116358;28;20039;-63
2022/12/15 13:21:40;;;;;;;14.20;8.70;;;6.10;99.90;;;;;;5114989;28;20035;-61
2022/12/15 13:24:29;;;;;;;13.88;7.47;;;6.20;99.90;;;;;;5112268;28;20044;-62
2022/12/15 13:27:12;;;;;;;15.15;8.85;;;6.50;99.90;;;;;;5096173;28;20047;-64
2022/12/15 13:30:06;;;;;;;13.57;8.23;;;6.50;99.90;;;;;;5094475;28;20051;-64
2022/12/15 13:32:35;;;;;;;18.80;9.15;;;6.20;99.90;;;;;;5105375;28;20109;-63
2022/12/15 13:35:20;;;;;;;18.27;9.82;;;6.00;99.90;;;;;;5108591;28;20064;-64
2022/12/15 13:37:53;;;;;;;14.98;8.35;;;6.10;99.90;;;;;;5107003;28;20073;-63
2022/12/15 13:40:21;;;;;;;16.67;9.68;;;6.20;99.90;;;;;;5112535;28;20043;-64
2022/12/15 13:43:05;;;;;;;17.55;9.15;;;6.20;99.90;;;;;;5069239;28;20047;-63
2022/12/15 13:45:36;;;;;;;14.75;8.43;;;6.30;99.90;;;;;;5106954;28;20072;-64
2022/12/15 13:48:28;;;;;;;13.38;7.93;;;6.70;99.90;;;;;;5111269;28;20040;-64
2022/12/15 13:51:18;;;;;;;13.98;8.40;;;7.10;99.90;;;;;;5078446;28;20551;-64
2022/12/15 13:53:49;;;;;;;16.67;9.18;;;7.40;99.90;;;;;;5109258;28;20407;-62
2022/12/15 13:56:44;;;;;;;12.23;7.65;;;7.60;99.90;;;;;;5110143;28;20198;-63
2022/12/15 13:59:39;;;;;;;17.58;8.07;;;8.00;99.90;;;;;;5086087;28;20052;-63
2022/12/15 14:02:32;;;;;;;13.98;8.60;;;8.40;99.90;;;;;;5079584;28;20047;-62
2022/12/15 14:05:17;;;;;;;11.98;8.27;;;8.00;99.90;;;;;;5110635;28;20044;-63
2022/12/15 14:08:06;;;;;;;14.00;8.43;;;7.10;99.90;;;;;;5109907;28;20486;-64
2022/12/15 14:10:44;;;;;;;13.98;8.80;;;6.50;99.90;;;;;;5111692;28;20048;-65
2022/12/15 14:13:29;;;;;;;11.55;8.25;;;6.60;99.90;;;;;;5110298;28;20039;-62
2022/12/15 14:16:03;;;;;;;13.48;7.85;;;6.60;99.90;;;;;;5107719;28;20087;-63
2022/12/15 14:18:31;;;;;;;12.88;8.18;;;6.40;99.90;;;;;;5091591;28;20047;-64
2022/12/15 14:20:58;;;;;;;16.90;7.78;;;6.10;99.90;;;;;;5108591;28;20078;-63
2022/12/15 14:23:27;;;;;;;12.60;7.63;;;6.00;99.90;;;;;;5111945;28;20056;-63
2022/12/15 14:26:06;;;;;;;11.98;7.95;;;6.00;99.90;;;;;;5086478;28;20170;-63
2022/12/15 14:28:35;;;;;;;13.13;8.15;;;6.30;99.90;;;;;;5106450;28;20157;-63
2022/12/15 14:31:19;;;;;;;14.57;7.78;;;6.50;99.90;;;;;;5105797;28;20039;-63
2022/12/15 14:33:48;;;;;;;12.32;8.20;;;6.40;99.90;;;;;;5109761;28;20917;-63
2022/12/15 14:36:16;;;;;;;14.82;8.25;;;6.20;99.90;;;;;;5115294;28;20047;-63
2022/12/15 14:39:03;;;;;;;12.20;7.82;;;5.90;99.90;;;;;;5110613;28;20583;-63
2022/12/15 14:41:36;;;;;;;15.65;7.90;;;5.50;99.90;;;;;;5107893;28;20115;-63
2022/12/15 14:44:14;;;;;;;18.92;8.38;;;5.10;99.90;;;;;;5089011;28;20043;-61
2022/12/15 14:46:46;;;;;;;16.98;8.98;;;4.60;99.90;;;;;;5107578;28;20078;-63
2022/12/15 14:49:18;;;;;;;14.93;8.55;;;4.40;99.90;;;;;;5092717;28;20418;-64
2022/12/15 14:51:48;;;;;;;17.65;8.50;;;4.20;99.90;;;;;;5111709;28;20043;-62
2022/12/15 14:54:35;;;;;;;19.75;8.60;;;4.10;99.90;;;;;;5089326;28;20054;-63
2022/12/15 14:57:13;;;;;;;;;;;3.90;99.90;;;;;;5121114;28;20046;-63
2022/12/15 14:59:43;;;;;;;13.95;7.90;;;3.70;99.90;;;;;;5102743;28;19920;-62
2022/12/15 15:02:13;;;;;;;17.23;9.15;;;3.60;99.90;;;;;;5103819;28;20094;-64
2022/12/15 15:04:40;;;;;;;13.65;7.97;;;3.40;99.90;;;;;;5123056;28;20166;-62
2022/12/15 15:07:16;;;;;;;21.27;9.60;;;3.20;99.90;;;;;;5097647;28;20044;-63
2022/12/15 15:09:43;;;;;;;;;;;3.10;99.90;;;;;;5118449;28;20051;-62
2022/12/15 15:12:16;;;;;;;17.10;9.88;;;2.90;99.90;;;;;;5096904;28;19928;-63
2022/12/15 15:14:58;;;;;;;17.02;9.77;;;2.90;99.90;;;;;;5095015;28;20100;-62
2022/12/15 15:17:34;;;;;;;17.52;10.73;;;2.70;99.90;;;;;;5114597;28;20131;-61
2022/12/15 15:20:04;;;;;;;17.67;10.82;;;2.50;99.90;;;;;;5118909;27;20066;-62
2022/12/15 15:22:36;;;;;;;17.35;11.35;;;2.40;99.90;;;;;;5116207;28;20038;-63